UYU100 SUCA-SAEZ
Flight info
| Callsign | UYU100 |
|---|---|
| Flight time | N/A |
| Altitude | 6000 |
| Route | PAPIX PAPIX6B |
| Aircraft | DA62/L-SDFGRY/C |
Departure
| Time | 2026-05-03 21:13 |
|---|---|
| Airport | Colonia Laguna de Los Patos International Airport (SUCA) |
Arrival
| Time | N/A |
|---|---|
| Airport | Ezeiza International Airport - Ministro Pistarini (SAEZ) |
| Time | Latitude | Longitude | Altitude | Speed | Heading |
|---|---|---|---|---|---|
| 2026-05-03 21:09 | -34.45912 | -57.76448 | 40 ft | 0 kts | 298° |
| 2026-05-03 21:13 | -34.45808 | -57.76687 | 44 ft | 63 kts | 297° |
| 2026-05-03 21:13 | -34.45542 | -57.77307 | 205 ft | 89 kts | 298° |
| 2026-05-03 21:13 | -34.45516 | -57.77965 | 694 ft | 80 kts | 243° |
| 2026-05-03 21:14 | -34.45904 | -57.78724 | 705 ft | 119 kts | 238° |
| 2026-05-03 21:14 | -34.46403 | -57.79457 | 1246 ft | 109 kts | 234° |
| 2026-05-03 21:14 | -34.46960 | -57.80154 | 1564 ft | 122 kts | 230° |
| 2026-05-03 21:14 | -34.47582 | -57.80885 | 1974 ft | 125 kts | 229° |
| 2026-05-03 21:15 | -34.48196 | -57.81612 | 2412 ft | 125 kts | 232° |
| 2026-05-03 21:15 | -34.48796 | -57.82382 | 2831 ft | 126 kts | 232° |
| 2026-05-03 21:15 | -34.49394 | -57.83153 | 3285 ft | 124 kts | 233° |
| 2026-05-03 21:15 | -34.49989 | -57.83914 | 3642 ft | 131 kts | 234° |
| 2026-05-03 21:16 | -34.50664 | -57.84849 | 3665 ft | 151 kts | 243° |
| 2026-05-03 21:16 | -34.50915 | -57.85951 | 4261 ft | 120 kts | 269° |
| 2026-05-03 21:16 | -34.50967 | -57.86827 | 4996 ft | 90 kts | 275° |
| 2026-05-03 21:16 | -34.50949 | -57.87475 | 5580 ft | 68 kts | 273° |
| 2026-05-03 21:17 | -34.50961 | -57.88046 | 5921 ft | 71 kts | 278° |
| 2026-05-03 21:17 | -34.50887 | -57.88466 | 6068 ft | 85 kts | 278° |
| 2026-05-03 21:17 | -34.51104 | -57.89546 | 6401 ft | 111 kts | 256° |
| 2026-05-03 21:17 | -34.51380 | -57.90456 | 6656 ft | 125 kts | 236° |
| 2026-05-03 21:18 | -34.52144 | -57.90360 | 6868 ft | 154 kts | 128° |
| 2026-05-03 21:18 | -34.52753 | -57.89254 | 7101 ft | 164 kts | 116° |
| 2026-05-03 21:18 | -34.53399 | -57.88094 | 7324 ft | 169 kts | 137° |
| 2026-05-03 21:18 | -34.54244 | -57.87066 | 7564 ft | 175 kts | 139° |
| 2026-05-03 21:19 | -34.55098 | -57.86022 | 7804 ft | 179 kts | 135° |
| 2026-05-03 21:19 | -34.55009 | -57.84759 | 7865 ft | 176 kts | 51° |
| 2026-05-03 21:19 | -34.54425 | -57.83420 | 8041 ft | 182 kts | 56° |
| 2026-05-03 21:19 | -34.53794 | -57.82031 | 8065 ft | 194 kts | 56° |
| 2026-05-03 21:20 | -34.53126 | -57.80572 | 8075 ft | 201 kts | 56° |
| 2026-05-03 21:20 | -34.52439 | -57.79074 | 8083 ft | 205 kts | 56° |
| 2026-05-03 21:20 | -34.51748 | -57.77567 | 8087 ft | 208 kts | 56° |
| 2026-05-03 21:20 | -34.51036 | -57.76019 | 8086 ft | 209 kts | 56° |
| 2026-05-03 21:21 | -34.50337 | -57.74498 | 8086 ft | 210 kts | 56° |
| 2026-05-03 21:21 | -34.49626 | -57.72953 | 8084 ft | 210 kts | 56° |
| 2026-05-03 21:21 | -34.48914 | -57.71407 | 8085 ft | 210 kts | 56° |
| 2026-05-03 21:21 | -34.48572 | -57.69748 | 8067 ft | 212 kts | 134° |
| 2026-05-03 21:22 | -34.49505 | -57.70427 | 8004 ft | 168 kts | 234° |
| 2026-05-03 21:22 | -34.50124 | -57.71615 | 8064 ft | 167 kts | 250° |
| 2026-05-03 21:22 | -34.50508 | -57.72958 | 8070 ft | 170 kts | 257° |
| 2026-05-03 21:22 | -34.50826 | -57.74349 | 8068 ft | 172 kts | 258° |
| 2026-05-03 21:23 | -34.51139 | -57.75757 | 8065 ft | 174 kts | 258° |
| 2026-05-03 21:23 | -34.51451 | -57.77155 | 8067 ft | 175 kts | 258° |
| 2026-05-03 21:23 | -34.51771 | -57.78578 | 8066 ft | 175 kts | 258° |
| 2026-05-03 21:23 | -34.52096 | -57.80004 | 8069 ft | 176 kts | 258° |
| 2026-05-03 21:24 | -34.52425 | -57.81428 | 8079 ft | 175 kts | 258° |
| 2026-05-03 21:24 | -34.52761 | -57.82879 | 7765 ft | 188 kts | 257° |
| 2026-05-03 21:24 | -34.53144 | -57.84426 | 7663 ft | 186 kts | 256° |
| 2026-05-03 21:24 | -34.53508 | -57.85880 | 7784 ft | 176 kts | 257° |
| 2026-05-03 21:25 | -34.53836 | -57.87282 | 7902 ft | 170 kts | 258° |
| 2026-05-03 21:25 | -34.53976 | -57.88655 | 8020 ft | 163 kts | 294° |
| 2026-05-03 21:25 | -34.53360 | -57.89775 | 8072 ft | 163 kts | 298° |
| 2026-05-03 21:25 | -34.53607 | -57.90990 | 8095 ft | 167 kts | 244° |
| 2026-05-03 21:26 | -34.53886 | -57.92334 | 8090 ft | 167 kts | 265° |
| 2026-05-03 21:26 | -34.54023 | -57.93745 | 8087 ft | 170 kts | 266° |
| 2026-05-03 21:26 | -34.54245 | -57.95155 | 8090 ft | 173 kts | 245° |
| 2026-05-03 21:26 | -34.55143 | -57.96117 | 8099 ft | 168 kts | 246° |
| 2026-05-03 21:27 | -34.55612 | -57.97412 | 8093 ft | 169 kts | 255° |
| 2026-05-03 21:27 | -34.56134 | -57.98703 | 8094 ft | 175 kts | 239° |
| 2026-05-03 21:27 | -34.56855 | -57.99875 | 8094 ft | 174 kts | 245° |
| 2026-05-03 21:27 | -34.57285 | -58.01223 | 8092 ft | 171 kts | 261° |
| 2026-05-03 21:28 | -34.57794 | -58.02543 | 8099 ft | 177 kts | 239° |
| 2026-05-03 21:28 | -34.58506 | -58.03766 | 8097 ft | 177 kts | 243° |
| 2026-05-03 21:28 | -34.59031 | -58.05090 | 8121 ft | 170 kts | 265° |
| 2026-05-03 21:28 | -34.58360 | -58.06135 | 8147 ft | 169 kts | 317° |
| 2026-05-03 21:29 | -34.57419 | -58.07032 | 8100 ft | 174 kts | 318° |
| 2026-05-03 21:29 | -34.56458 | -58.07933 | 8099 ft | 175 kts | 318° |
| 2026-05-03 21:29 | -34.55507 | -58.08819 | 8107 ft | 175 kts | 319° |
| 2026-05-03 21:29 | -34.54540 | -58.09717 | 8107 ft | 175 kts | 319° |
| 2026-05-03 21:30 | -34.53663 | -58.10707 | 8109 ft | 172 kts | 315° |
| 2026-05-03 21:30 | -34.52586 | -58.11371 | 8106 ft | 177 kts | 336° |
| 2026-05-03 21:30 | -34.51385 | -58.11115 | 8110 ft | 199 kts | 38° |
| 2026-05-03 21:30 | -34.50842 | -58.09526 | 8111 ft | 210 kts | 73° |
| 2026-05-03 21:31 | -34.50528 | -58.07798 | 8095 ft | 209 kts | 71° |
| 2026-05-03 21:31 | -34.50214 | -58.06068 | 8092 ft | 210 kts | 69° |
| 2026-05-03 21:31 | -34.49671 | -58.04438 | 8092 ft | 209 kts | 62° |
| 2026-05-03 21:31 | -34.49074 | -58.02827 | 8094 ft | 210 kts | 61° |
| 2026-05-03 21:32 | -34.48476 | -58.01239 | 8095 ft | 210 kts | 61° |
| 2026-05-03 21:32 | -34.47865 | -57.99629 | 8091 ft | 211 kts | 61° |
| 2026-05-03 21:32 | -34.47250 | -57.98017 | 8090 ft | 211 kts | 60° |
| 2026-05-03 21:32 | -34.46636 | -57.96407 | 8089 ft | 211 kts | 61° |
| 2026-05-03 21:33 | -34.46020 | -57.94797 | 8086 ft | 211 kts | 60° |
| 2026-05-03 21:33 | -34.45618 | -57.93153 | 8028 ft | 186 kts | 85° |
| 2026-05-03 21:33 | -34.45639 | -57.91710 | 7529 ft | 166 kts | 101° |
| 2026-05-03 21:33 | -34.45939 | -57.90429 | 7148 ft | 151 kts | 100° |
| 2026-05-03 21:34 | -34.46162 | -57.89247 | 6814 ft | 140 kts | 107° |
| 2026-05-03 21:34 | -34.46458 | -57.88140 | 6383 ft | 141 kts | 110° |
| 2026-05-03 21:34 | -34.46827 | -57.87032 | 5944 ft | 138 kts | 114° |
| 2026-05-03 21:34 | -34.47260 | -57.86046 | 5523 ft | 138 kts | 120° |
| 2026-05-03 21:35 | -34.47742 | -57.85002 | 5079 ft | 137 kts | 121° |
| 2026-05-03 21:35 | -34.48039 | -57.83988 | 4869 ft | 125 kts | 104° |
| 2026-05-03 21:35 | -34.48256 | -57.82957 | 4481 ft | 131 kts | 88° |
| 2026-05-03 21:35 | -34.48019 | -57.81922 | 4397 ft | 119 kts | 46° |
| 2026-05-03 21:36 | -34.47861 | -57.80968 | 4336 ft | 126 kts | 97° |
| 2026-05-03 21:36 | -34.48059 | -57.79959 | 3992 ft | 141 kts | 88° |
| 2026-05-03 21:36 | -34.48002 | -57.78818 | 3962 ft | 129 kts | 88° |
| 2026-05-03 21:36 | -34.48110 | -57.77732 | 3702 ft | 133 kts | 95° |
| 2026-05-03 21:37 | -34.48286 | -57.76567 | 3126 ft | 154 kts | 96° |
| 2026-05-03 21:37 | -34.48597 | -57.75154 | 1878 ft | 197 kts | 108° |
| 2026-05-03 21:37 | -34.49094 | -57.73713 | 1577 ft | 174 kts | 109° |
| 2026-05-03 21:37 | -34.49790 | -57.72488 | 977 ft | 174 kts | 133° |
| 2026-05-03 21:38 | -34.50839 | -57.72032 | 725 ft | 159 kts | 187° |
| 2026-05-03 21:38 | -34.51666 | -57.72706 | 493 ft | 133 kts | 249° |
| 2026-05-03 21:38 | -34.51606 | -57.73593 | 548 ft | 94 kts | 314° |
| 2026-05-03 21:38 | -34.51102 | -57.74037 | 425 ft | 89 kts | 338° |
| 2026-05-03 21:39 | -34.50522 | -57.74280 | 276 ft | 90 kts | 349° |
| 2026-05-03 21:39 | -34.49915 | -57.74414 | 200 ft | 85 kts | 352° |
| 2026-05-03 21:39 | -34.49366 | -57.74521 | 232 ft | 82 kts | 355° |
| 2026-05-03 21:39 | -34.48688 | -57.74642 | 402 ft | 113 kts | 352° |
| 2026-05-03 21:40 | -34.47893 | -57.74798 | 511 ft | 109 kts | 353° |
| 2026-05-03 21:40 | -34.47229 | -57.74931 | 455 ft | 89 kts | 346° |
| 2026-05-03 21:40 | -34.46724 | -57.75320 | 365 ft | 86 kts | 313° |
| 2026-05-03 21:40 | -34.46327 | -57.75820 | 260 ft | 79 kts | 313° |
| 2026-05-03 21:41 | -34.46018 | -57.76304 | 93 ft | 66 kts | 308° |
| 2026-05-03 21:41 | -34.45789 | -57.76722 | 44 ft | 52 kts | 299° |
| 2026-05-03 21:41 | -34.45636 | -57.77060 | 54 ft | 42 kts | 297° |
| 2026-05-03 21:41 | -34.45589 | -57.77175 | 59 ft | 0 kts | 295° |